Terminal Aerodrome Forecast
Issued by NWS

Home | Current Version | Previous Version | Text Only | Print | Product List | Glossary On
Versions: 1 2 3 4 5 6 7 8 9 10 11 12 13 14 15 16 17 18 19 20 21 22 23 24 25 26
000
FTUS41 KPBZ 291129
TAFMGW
TAF
KMGW 291129Z 2912/3012 34004KT 1/2SM DZ FG VV002
     FM291330 34005KT 2SM BR OVC006
     FM291500 VRB03KT 5SM BR OVC008
     FM291800 28006KT P6SM BKN015
     FM300400 34004KT 2SM BR OVC008=

USA.gov is the U.S. government's official web portal to all federal, state and local government web resources and services.